sensor_id;sensor_type;location;lat;lon;timestamp;pressure;altitude;pressure_sealevel;temperature;humidity
70589;BME280;58152;49.202;18.744;2023-05-12T00:00:39;97374.56;;;13.15;45.74
70589;BME280;58152;49.202;18.744;2023-05-12T00:03:05;97372.91;;;13.12;45.60
70589;BME280;58152;49.202;18.744;2023-05-12T00:05:30;97382.03;;;13.07;45.88
70589;BME280;58152;49.202;18.744;2023-05-12T00:07:56;97376.72;;;12.91;46.04
70589;BME280;58152;49.202;18.744;2023-05-12T00:10:21;97384.88;;;12.86;45.69
70589;BME280;58152;49.202;18.744;2023-05-12T00:12:47;97394.66;;;12.84;46.05
70589;BME280;58152;49.202;18.744;2023-05-12T00:15:13;97374.84;;;12.77;46.23
70589;BME280;58152;49.202;18.744;2023-05-12T00:17:38;97374.38;;;12.69;46.87
70589;BME280;58152;49.202;18.744;2023-05-12T00:20:04;97381.53;;;12.67;46.21
70589;BME280;58152;49.202;18.744;2023-05-12T00:22:30;97390.91;;;12.55;46.16
70589;BME280;58152;49.202;18.744;2023-05-12T00:24:56;97381.56;;;12.50;46.84
70589;BME280;58152;49.202;18.744;2023-05-12T00:27:21;97392.69;;;12.55;46.50
70589;BME280;58152;49.202;18.744;2023-05-12T00:29:47;97389.53;;;12.48;46.38
70589;BME280;58152;49.202;18.744;2023-05-12T00:32:12;97386.13;;;12.46;46.45
70589;BME280;58152;49.202;18.744;2023-05-12T00:34:38;97384.84;;;12.37;47.08
70589;BME280;58152;49.202;18.744;2023-05-12T00:37:04;97383.69;;;12.43;46.54
70589;BME280;58152;49.202;18.744;2023-05-12T00:39:30;97390.25;;;12.34;47.04
70589;BME280;58152;49.202;18.744;2023-05-12T00:41:57;97388.03;;;12.27;46.83
70589;BME280;58152;49.202;18.744;2023-05-12T00:44:22;97387.41;;;12.21;47.10
70589;BME280;58152;49.202;18.744;2023-05-12T00:46:48;97382.84;;;12.08;47.09
70589;BME280;58152;49.202;18.744;2023-05-12T00:49:14;97379.94;;;11.97;47.61
70589;BME280;58152;49.202;18.744;2023-05-12T00:51:40;97381.72;;;11.96;47.51
70589;BME280;58152;49.202;18.744;2023-05-12T00:54:05;97391.13;;;12.00;46.86
70589;BME280;58152;49.202;18.744;2023-05-12T00:56:31;97391.13;;;12.00;47.98
70589;BME280;58152;49.202;18.744;2023-05-12T00:59:06;97387.72;;;11.98;47.60
70589;BME280;58152;49.202;18.744;2023-05-12T01:01:32;97400.72;;;12.01;47.48
70589;BME280;58152;49.202;18.744;2023-05-12T01:03:58;97388.50;;;12.00;48.11
70589;BME280;58152;49.202;18.744;2023-05-12T01:06:37;97391.28;;;11.97;48.72
70589;BME280;58152;49.202;18.744;2023-05-12T01:09:03;97399.03;;;11.81;47.45
70589;BME280;58152;49.202;18.744;2023-05-12T01:11:29;97393.88;;;11.80;47.91
70589;BME280;58152;49.202;18.744;2023-05-12T01:13:54;97414.78;;;11.83;47.47
70589;BME280;58152;49.202;18.744;2023-05-12T01:16:22;97408.72;;;11.81;47.72
70589;BME280;58152;49.202;18.744;2023-05-12T01:18:50;97402.91;;;11.74;47.58
70589;BME280;58152;49.202;18.744;2023-05-12T01:21:18;97391.38;;;11.59;48.39
70589;BME280;58152;49.202;18.744;2023-05-12T01:23:48;97402.97;;;11.55;48.07
70589;BME280;58152;49.202;18.744;2023-05-12T01:26:16;97398.22;;;11.44;48.67
70589;BME280;58152;49.202;18.744;2023-05-12T01:28:41;97399.94;;;11.45;48.22
70589;BME280;58152;49.202;18.744;2023-05-12T01:31:08;97393.97;;;11.42;48.04
70589;BME280;58152;49.202;18.744;2023-05-12T01:33:36;97395.53;;;11.46;48.24
70589;BME280;58152;49.202;18.744;2023-05-12T01:36:02;97399.72;;;11.50;48.04
70589;BME280;58152;49.202;18.744;2023-05-12T01:38:27;97397.22;;;11.47;48.44
70589;BME280;58152;49.202;18.744;2023-05-12T01:40:53;97396.44;;;11.45;48.26
70589;BME280;58152;49.202;18.744;2023-05-12T01:43:18;97388.78;;;11.40;48.59
70589;BME280;58152;49.202;18.744;2023-05-12T01:45:44;97386.22;;;11.39;48.22
70589;BME280;58152;49.202;18.744;2023-05-12T01:48:09;97406.47;;;11.37;48.49
70589;BME280;58152;49.202;18.744;2023-05-12T01:50:35;97403.34;;;11.29;48.65
70589;BME280;58152;49.202;18.744;2023-05-12T01:53:00;97396.31;;;11.29;48.72
70589;BME280;58152;49.202;18.744;2023-05-12T01:55:25;97397.59;;;11.20;48.43
70589;BME280;58152;49.202;18.744;2023-05-12T01:57:51;97400.66;;;11.11;49.03
70589;BME280;58152;49.202;18.744;2023-05-12T02:00:16;97403.41;;;11.08;48.77
70589;BME280;58152;49.202;18.744;2023-05-12T02:02:42;97395.53;;;11.08;49.36
70589;BME280;58152;49.202;18.744;2023-05-12T02:05:08;97401.59;;;11.10;48.59
70589;BME280;58152;49.202;18.744;2023-05-12T02:07:33;97393.72;;;11.10;48.74
70589;BME280;58152;49.202;18.744;2023-05-12T02:09:59;97392.03;;;11.09;49.08
70589;BME280;58152;49.202;18.744;2023-05-12T02:12:24;97392.91;;;11.08;49.11
70589;BME280;58152;49.202;18.744;2023-05-12T02:14:50;97400.16;;;11.03;49.49
70589;BME280;58152;49.202;18.744;2023-05-12T02:17:15;97397.91;;;10.96;48.86
70589;BME280;58152;49.202;18.744;2023-05-12T02:19:41;97393.44;;;10.98;48.94
70589;BME280;58152;49.202;18.744;2023-05-12T02:22:07;97391.81;;;10.95;49.07
70589;BME280;58152;49.202;18.744;2023-05-12T02:24:32;97408.41;;;10.96;49.38
70589;BME280;58152;49.202;18.744;2023-05-12T02:26:57;97410.66;;;10.84;49.06
70589;BME280;58152;49.202;18.744;2023-05-12T02:29:23;97418.03;;;10.76;49.50
70589;BME280;58152;49.202;18.744;2023-05-12T02:31:48;97414.75;;;10.71;48.96
70589;BME280;58152;49.202;18.744;2023-05-12T02:34:14;97417.16;;;10.76;49.36
70589;BME280;58152;49.202;18.744;2023-05-12T02:36:39;97412.97;;;10.72;49.50
70589;BME280;58152;49.202;18.744;2023-05-12T02:39:04;97411.50;;;10.66;49.79
70589;BME280;58152;49.202;18.744;2023-05-12T02:41:30;97410.56;;;10.67;49.12
70589;BME280;58152;49.202;18.744;2023-05-12T02:43:55;97419.22;;;10.69;49.78
70589;BME280;58152;49.202;18.744;2023-05-12T02:46:21;97418.22;;;10.72;49.56
70589;BME280;58152;49.202;18.744;2023-05-12T02:48:46;97420.16;;;10.68;49.33
70589;BME280;58152;49.202;18.744;2023-05-12T02:51:13;97410.63;;;10.65;49.58
70589;BME280;58152;49.202;18.744;2023-05-12T02:53:38;97409.78;;;10.65;49.77
70589;BME280;58152;49.202;18.744;2023-05-12T02:56:05;97422.91;;;10.65;49.67
70589;BME280;58152;49.202;18.744;2023-05-12T02:58:31;97424.75;;;10.63;49.85
70589;BME280;58152;49.202;18.744;2023-05-12T03:00:56;97415.38;;;10.57;50.19
70589;BME280;58152;49.202;18.744;2023-05-12T03:03:22;97424.03;;;10.59;50.33
70589;BME280;58152;49.202;18.744;2023-05-12T03:05:47;97411.25;;;10.52;49.97
70589;BME280;58152;49.202;18.744;2023-05-12T03:08:14;97415.66;;;10.51;50.69
70589;BME280;58152;49.202;18.744;2023-05-12T03:10:39;97408.84;;;10.47;50.49
70589;BME280;58152;49.202;18.744;2023-05-12T03:13:04;97405.47;;;10.43;50.50
70589;BME280;58152;49.202;18.744;2023-05-12T03:15:30;97410.72;;;10.43;50.27
70589;BME280;58152;49.202;18.744;2023-05-12T03:17:55;97405.84;;;10.36;50.26
70589;BME280;58152;49.202;18.744;2023-05-12T03:20:21;97411.28;;;10.31;50.44
70589;BME280;58152;49.202;18.744;2023-05-12T03:22:46;97410.22;;;10.35;50.70
70589;BME280;58152;49.202;18.744;2023-05-12T03:25:12;97412.06;;;10.33;50.40
70589;BME280;58152;49.202;18.744;2023-05-12T03:27:38;97413.22;;;10.26;50.97
70589;BME280;58152;49.202;18.744;2023-05-12T03:30:03;97408.16;;;10.22;51.08
70589;BME280;58152;49.202;18.744;2023-05-12T03:32:29;97411.69;;;10.21;50.66
70589;BME280;58152;49.202;18.744;2023-05-12T03:34:55;97413.31;;;10.25;50.98
70589;BME280;58152;49.202;18.744;2023-05-12T03:37:21;97411.53;;;10.25;51.04
70589;BME280;58152;49.202;18.744;2023-05-12T03:39:46;97409.06;;;10.21;50.71
70589;BME280;58152;49.202;18.744;2023-05-12T03:42:12;97421.34;;;10.20;50.90
70589;BME280;58152;49.202;18.744;2023-05-12T03:44:38;97415.56;;;10.12;50.93
70589;BME280;58152;49.202;18.744;2023-05-12T03:47:03;97418.56;;;10.03;51.11
70589;BME280;58152;49.202;18.744;2023-05-12T03:49:29;97430.91;;;10.01;51.17
70589;BME280;58152;49.202;18.744;2023-05-12T03:51:54;97424.94;;;9.97;50.99
70589;BME280;58152;49.202;18.744;2023-05-12T03:54:21;97427.81;;;9.91;51.07
70589;BME280;58152;49.202;18.744;2023-05-12T03:56:47;97433.25;;;9.86;50.99
70589;BME280;58152;49.202;18.744;2023-05-12T03:59:12;97440.09;;;9.89;50.75
70589;BME280;58152;49.202;18.744;2023-05-12T04:01:38;97430.84;;;9.80;51.25
70589;BME280;58152;49.202;18.744;2023-05-12T04:04:03;97435.97;;;9.83;51.17
70589;BME280;58152;49.202;18.744;2023-05-12T04:06:29;97442.22;;;9.81;51.60
70589;BME280;58152;49.202;18.744;2023-05-12T04:08:55;97450.78;;;9.84;51.30
70589;BME280;58152;49.202;18.744;2023-05-12T04:11:20;97441.34;;;9.80;51.23
70589;BME280;58152;49.202;18.744;2023-05-12T04:13:46;97457.94;;;9.81;51.60
70589;BME280;58152;49.202;18.744;2023-05-12T04:16:11;97435.25;;;9.80;51.35
70589;BME280;58152;49.202;18.744;2023-05-12T04:18:37;97443.75;;;9.85;51.19
70589;BME280;58152;49.202;18.744;2023-05-12T04:21:03;97439.59;;;9.81;51.53
70589;BME280;58152;49.202;18.744;2023-05-12T04:23:29;97446.16;;;9.91;51.82
70589;BME280;58152;49.202;18.744;2023-05-12T04:25:55;97452.97;;;9.95;51.50
70589;BME280;58152;49.202;18.744;2023-05-12T04:28:20;97457.22;;;9.98;51.82
70589;BME280;58152;49.202;18.744;2023-05-12T04:30:45;97450.75;;;10.06;51.59
70589;BME280;58152;49.202;18.744;2023-05-12T04:33:11;97465.91;;;10.00;51.81
70589;BME280;58152;49.202;18.744;2023-05-12T04:35:36;97456.50;;;9.94;52.10
70589;BME280;58152;49.202;18.744;2023-05-12T04:38:02;97449.56;;;9.93;51.97
70589;BME280;58152;49.202;18.744;2023-05-12T04:40:28;97474.72;;;9.97;52.11
70589;BME280;58152;49.202;18.744;2023-05-12T04:42:53;97468.75;;;9.93;51.93
70589;BME280;58152;49.202;18.744;2023-05-12T04:45:19;97471.25;;;9.97;52.04
70589;BME280;58152;49.202;18.744;2023-05-12T04:47:44;97473.75;;;10.00;52.43
70589;BME280;58152;49.202;18.744;2023-05-12T04:50:10;97484.06;;;10.04;52.55
70589;BME280;58152;49.202;18.744;2023-05-12T04:52:36;97477.97;;;10.04;52.00
70589;BME280;58152;49.202;18.744;2023-05-12T04:55:03;97478.94;;;10.01;51.78
70589;BME280;58152;49.202;18.744;2023-05-12T04:57:28;97481.28;;;10.07;52.10
70589;BME280;58152;49.202;18.744;2023-05-12T04:59:54;97471.72;;;10.06;52.32
70589;BME280;58152;49.202;18.744;2023-05-12T05:02:20;97476.69;;;10.12;51.95
70589;BME280;58152;49.202;18.744;2023-05-12T05:04:46;97472.38;;;10.11;52.37
70589;BME280;58152;49.202;18.744;2023-05-12T05:07:12;97475.75;;;10.15;52.67
70589;BME280;58152;49.202;18.744;2023-05-12T05:09:37;97488.53;;;10.23;53.02
70589;BME280;58152;49.202;18.744;2023-05-12T05:12:03;97492.78;;;10.27;52.71
70589;BME280;58152;49.202;18.744;2023-05-12T05:14:28;97487.56;;;10.25;52.49
70589;BME280;58152;49.202;18.744;2023-05-12T05:16:54;97489.22;;;10.28;52.44
70589;BME280;58152;49.202;18.744;2023-05-12T05:19:19;97480.50;;;10.27;52.05
70589;BME280;58152;49.202;18.744;2023-05-12T05:21:45;97489.88;;;10.33;52.70
70589;BME280;58152;49.202;18.744;2023-05-12T05:24:13;97490.72;;;10.33;52.77
70589;BME280;58152;49.202;18.744;2023-05-12T05:26:39;97484.53;;;10.36;52.12
70589;BME280;58152;49.202;18.744;2023-05-12T05:29:04;97494.75;;;10.42;52.38
70589;BME280;58152;49.202;18.744;2023-05-12T05:31:30;97482.59;;;10.39;52.35
70589;BME280;58152;49.202;18.744;2023-05-12T05:33:55;97489.63;;;10.39;52.14
70589;BME280;58152;49.202;18.744;2023-05-12T05:36:21;97489.28;;;10.47;52.55
70589;BME280;58152;49.202;18.744;2023-05-12T05:38:47;97494.44;;;10.50;52.78
70589;BME280;58152;49.202;18.744;2023-05-12T05:41:12;97487.44;;;10.49;52.67
70589;BME280;58152;49.202;18.744;2023-05-12T05:43:38;97489.75;;;10.56;52.58
70589;BME280;58152;49.202;18.744;2023-05-12T05:46:03;97493.50;;;10.51;52.73
70589;BME280;58152;49.202;18.744;2023-05-12T05:48:29;97489.28;;;10.47;53.02
70589;BME280;58152;49.202;18.744;2023-05-12T05:50:54;97492.38;;;10.56;52.59
70589;BME280;58152;49.202;18.744;2023-05-12T05:53:23;97487.97;;;10.57;53.11
70589;BME280;58152;49.202;18.744;2023-05-12T05:55:48;97503.28;;;10.67;53.15
70589;BME280;58152;49.202;18.744;2023-05-12T05:58:14;97501.50;;;10.68;52.99
70589;BME280;58152;49.202;18.744;2023-05-12T06:00:40;97509.09;;;10.74;53.06
70589;BME280;58152;49.202;18.744;2023-05-12T06:03:07;97495.22;;;10.72;53.03
70589;BME280;58152;49.202;18.744;2023-05-12T06:05:32;97495.84;;;10.77;52.79
70589;BME280;58152;49.202;18.744;2023-05-12T06:07:58;97497.34;;;10.83;52.67
70589;BME280;58152;49.202;18.744;2023-05-12T06:10:23;97507.56;;;10.89;52.39
70589;BME280;58152;49.202;18.744;2023-05-12T06:12:49;97500.53;;;10.89;52.74
70589;BME280;58152;49.202;18.744;2023-05-12T06:15:15;97493.31;;;10.94;52.51
70589;BME280;58152;49.202;18.744;2023-05-12T06:17:40;97489.84;;;10.94;52.72
70589;BME280;58152;49.202;18.744;2023-05-12T06:20:06;97497.38;;;11.02;52.22
70589;BME280;58152;49.202;18.744;2023-05-12T06:22:32;97507.56;;;11.09;52.25
70589;BME280;58152;49.202;18.744;2023-05-12T06:25:26;97496.19;;;11.09;53.28
70589;BME280;58152;49.202;18.744;2023-05-12T06:28:02;97494.44;;;11.09;52.19
70589;BME280;58152;49.202;18.744;2023-05-12T06:30:31;97499.31;;;11.17;52.27
70589;BME280;58152;49.202;18.744;2023-05-12T06:32:57;97505.06;;;11.25;52.00
70589;BME280;58152;49.202;18.744;2023-05-12T06:35:23;97500.53;;;11.29;52.39
70589;BME280;58152;49.202;18.744;2023-05-12T06:37:49;97504.56;;;11.36;52.14
70589;BME280;58152;49.202;18.744;2023-05-12T06:40:45;97498.34;;;11.38;52.88
70589;BME280;58152;49.202;18.744;2023-05-12T06:43:19;97496.25;;;11.45;52.07
70589;BME280;58152;49.202;18.744;2023-05-12T06:45:44;97484.13;;;11.42;51.80
70589;BME280;58152;49.202;18.744;2023-05-12T06:48:10;97482.16;;;11.48;51.65
70589;BME280;58152;49.202;18.744;2023-05-12T06:50:36;97492.22;;;11.57;51.25
70589;BME280;58152;49.202;18.744;2023-05-12T06:53:01;97487.69;;;11.60;51.11
70589;BME280;58152;49.202;18.744;2023-05-12T06:55:27;97486.53;;;11.66;50.94
70589;BME280;58152;49.202;18.744;2023-05-12T06:57:53;97492.34;;;11.73;50.87
70589;BME280;58152;49.202;18.744;2023-05-12T07:00:23;97494.91;;;11.74;51.05
70589;BME280;58152;49.202;18.744;2023-05-12T07:02:51;97482.63;;;11.75;51.46
70589;BME280;58152;49.202;18.744;2023-05-12T07:05:18;97479.84;;;11.78;51.29
70589;BME280;58152;49.202;18.744;2023-05-12T07:07:44;97486.22;;;11.91;51.31
70589;BME280;58152;49.202;18.744;2023-05-12T07:10:09;97470.63;;;11.88;51.62
70589;BME280;58152;49.202;18.744;2023-05-12T07:12:35;97476.38;;;11.96;51.24
70589;BME280;58152;49.202;18.744;2023-05-12T07:15:27;97476.13;;;12.01;51.95
70589;BME280;58152;49.202;18.744;2023-05-12T07:17:52;97472.72;;;11.99;51.35
70589;BME280;58152;49.202;18.744;2023-05-12T07:20:20;97480.06;;;12.09;50.87
70589;BME280;58152;49.202;18.744;2023-05-12T07:22:45;97474.53;;;12.15;51.22
70589;BME280;58152;49.202;18.744;2023-05-12T07:25:10;97478.53;;;12.23;51.74
70589;BME280;58152;49.202;18.744;2023-05-12T07:27:48;97484.28;;;12.31;51.51
70589;BME280;58152;49.202;18.744;2023-05-12T07:30:14;97474.44;;;12.34;51.60
70589;BME280;58152;49.202;18.744;2023-05-12T07:32:40;97477.00;;;12.36;51.38
70589;BME280;58152;49.202;18.744;2023-05-12T07:35:07;97461.81;;;12.41;51.33
70589;BME280;58152;49.202;18.744;2023-05-12T07:37:35;97476.53;;;12.45;51.19
70589;BME280;58152;49.202;18.744;2023-05-12T07:40:06;97472.81;;;12.49;51.63
70589;BME280;58152;49.202;18.744;2023-05-12T07:42:37;97479.38;;;12.58;51.30
70589;BME280;58152;49.202;18.744;2023-05-12T07:45:06;97476.66;;;12.59;51.57
70589;BME280;58152;49.202;18.744;2023-05-12T07:47:32;97463.38;;;12.62;51.60
70589;BME280;58152;49.202;18.744;2023-05-12T07:50:02;97478.59;;;12.73;51.29
70589;BME280;58152;49.202;18.744;2023-05-12T07:52:28;97477.59;;;12.76;50.62
70589;BME280;58152;49.202;18.744;2023-05-12T07:54:55;97474.81;;;12.79;50.33
70589;BME280;58152;49.202;18.744;2023-05-12T07:57:21;97476.88;;;12.89;50.35
70589;BME280;58152;49.202;18.744;2023-05-12T07:59:47;97474.75;;;12.96;50.01
70589;BME280;58152;49.202;18.744;2023-05-12T08:02:14;97466.84;;;12.96;49.76
70589;BME280;58152;49.202;18.744;2023-05-12T08:04:42;97478.63;;;13.06;50.30
70589;BME280;58152;49.202;18.744;2023-05-12T08:07:07;97474.72;;;13.13;50.45
70589;BME280;58152;49.202;18.744;2023-05-12T08:09:33;97477.03;;;13.19;50.12
70589;BME280;58152;49.202;18.744;2023-05-12T08:12:01;97464.72;;;13.20;49.28
70589;BME280;58152;49.202;18.744;2023-05-12T08:14:32;97465.25;;;13.27;48.98
70589;BME280;58152;49.202;18.744;2023-05-12T08:17:09;97465.69;;;13.35;49.23
70589;BME280;58152;49.202;18.744;2023-05-12T08:19:53;97465.53;;;13.38;49.54
70589;BME280;58152;49.202;18.744;2023-05-12T08:22:30;97465.88;;;13.47;48.85
70589;BME280;58152;49.202;18.744;2023-05-12T08:25:04;97460.50;;;13.49;49.32
70589;BME280;58152;49.202;18.744;2023-05-12T08:27:48;97473.66;;;13.65;48.49
70589;BME280;58152;49.202;18.744;2023-05-12T08:37:26;97464.66;;;13.85;48.43
70589;BME280;58152;49.202;18.744;2023-05-12T08:39:57;97463.03;;;13.98;48.70
70589;BME280;58152;49.202;18.744;2023-05-12T08:42:43;97446.16;;;14.01;48.13
70589;BME280;58152;49.202;18.744;2023-05-12T08:45:11;97457.88;;;14.11;47.74
70589;BME280;58152;49.202;18.744;2023-05-12T08:47:37;97461.19;;;14.14;47.45
70589;BME280;58152;49.202;18.744;2023-05-12T08:50:08;97458.78;;;14.26;46.87
70589;BME280;58152;49.202;18.744;2023-05-12T08:52:37;97447.97;;;14.30;47.10
70589;BME280;58152;49.202;18.744;2023-05-12T08:55:03;97445.06;;;14.35;47.05
70589;BME280;58152;49.202;18.744;2023-05-12T08:57:36;97465.19;;;14.52;45.96
70589;BME280;58152;49.202;18.744;2023-05-12T09:00:06;97458.72;;;14.57;46.21
70589;BME280;58152;49.202;18.744;2023-05-12T09:02:36;97437.50;;;14.59;46.01
70589;BME280;58152;49.202;18.744;2023-05-12T09:05:03;97437.97;;;14.65;45.74
70589;BME280;58152;49.202;18.744;2023-05-12T09:07:29;97453.94;;;14.78;45.98
70589;BME280;58152;49.202;18.744;2023-05-12T09:09:57;97446.78;;;14.80;45.67
70589;BME280;58152;49.202;18.744;2023-05-12T09:12:24;97453.19;;;14.90;45.52
70589;BME280;58152;49.202;18.744;2023-05-12T09:15:04;97450.16;;;14.96;45.30
70589;BME280;58152;49.202;18.744;2023-05-12T09:17:32;97442.72;;;15.03;44.83
70589;BME280;58152;49.202;18.744;2023-05-12T09:19:58;97435.44;;;15.07;45.89
70589;BME280;58152;49.202;18.744;2023-05-12T09:29:19;97430.13;;;15.35;44.62
70589;BME280;58152;49.202;18.744;2023-05-12T09:31:52;97425.78;;;15.34;45.14
70589;BME280;58152;49.202;18.744;2023-05-12T09:34:29;97438.22;;;15.46;44.59
70589;BME280;58152;49.202;18.744;2023-05-12T09:37:04;97438.59;;;15.55;43.89
70589;BME280;58152;49.202;18.744;2023-05-12T09:39:30;97431.22;;;15.60;44.23
70589;BME280;58152;49.202;18.744;2023-05-12T09:42:12;97440.28;;;15.70;44.14
70589;BME280;58152;49.202;18.744;2023-05-12T09:44:42;97429.63;;;15.71;44.56
70589;BME280;58152;49.202;18.744;2023-05-12T09:47:11;97430.72;;;15.82;43.83
70589;BME280;58152;49.202;18.744;2023-05-12T09:49:36;97421.72;;;15.84;43.86
70589;BME280;58152;49.202;18.744;2023-05-12T09:52:03;97427.53;;;15.89;44.26
70589;BME280;58152;49.202;18.744;2023-05-12T09:54:30;97421.03;;;15.95;43.60
70589;BME280;58152;49.202;18.744;2023-05-12T09:57:01;97422.72;;;15.96;43.43
70589;BME280;58152;49.202;18.744;2023-05-12T09:59:32;97429.94;;;16.07;42.43
70589;BME280;58152;49.202;18.744;2023-05-12T10:01:59;97425.09;;;16.13;43.69
70589;BME280;58152;49.202;18.744;2023-05-12T10:04:30;97421.06;;;16.20;43.02
70589;BME280;58152;49.202;18.744;2023-05-12T10:06:59;97415.38;;;16.26;42.65
70589;BME280;58152;49.202;18.744;2023-05-12T10:09:31;97414.31;;;16.29;42.76
70589;BME280;58152;49.202;18.744;2023-05-12T10:11:58;97425.13;;;16.39;42.16
70589;BME280;58152;49.202;18.744;2023-05-12T10:14:30;97420.06;;;16.36;42.04
70589;BME280;58152;49.202;18.744;2023-05-12T10:17:01;97420.28;;;16.45;42.15
70589;BME280;58152;49.202;18.744;2023-05-12T10:20:02;97412.53;;;16.42;40.82
70589;BME280;58152;49.202;18.744;2023-05-12T10:22:48;97418.47;;;16.46;40.70
70589;BME280;58152;49.202;18.744;2023-05-12T10:25:21;97411.69;;;16.42;41.19
70589;BME280;58152;49.202;18.744;2023-05-12T10:27:54;97415.19;;;16.42;40.75
70589;BME280;58152;49.202;18.744;2023-05-12T10:30:21;97409.16;;;16.40;40.44
70589;BME280;58152;49.202;18.744;2023-05-12T10:32:53;97417.41;;;16.48;40.78
70589;BME280;58152;49.202;18.744;2023-05-12T10:35:41;97409.56;;;16.47;39.09
70589;BME280;58152;49.202;18.744;2023-05-12T10:38:35;97418.06;;;16.65;38.58
70589;BME280;58152;49.202;18.744;2023-05-12T10:41:07;97404.38;;;16.58;40.03
70589;BME280;58152;49.202;18.744;2023-05-12T10:43:40;97415.31;;;16.66;39.74
70589;BME280;58152;49.202;18.744;2023-05-12T10:50:43;97406.13;;;16.85;38.85
70589;BME280;58152;49.202;18.744;2023-05-12T10:53:37;97410.13;;;17.03;39.97
70589;BME280;58152;49.202;18.744;2023-05-12T10:56:49;97400.38;;;17.03;38.32
70589;BME280;58152;49.202;18.744;2023-05-12T10:59:22;97403.53;;;17.21;39.13
70589;BME280;58152;49.202;18.744;2023-05-12T11:02:21;97405.13;;;17.24;37.63
70589;BME280;58152;49.202;18.744;2023-05-12T11:04:59;97407.31;;;17.30;38.57
70589;BME280;58152;49.202;18.744;2023-05-12T11:07:29;97406.69;;;17.26;38.46
70589;BME280;58152;49.202;18.744;2023-05-12T11:09:57;97419.94;;;17.26;40.31
70589;BME280;58152;49.202;18.744;2023-05-12T11:12:24;97414.44;;;17.30;38.96
70589;BME280;58152;49.202;18.744;2023-05-12T11:14:51;97405.44;;;17.32;38.64
70589;BME280;58152;49.202;18.744;2023-05-12T11:17:16;97418.03;;;17.41;38.75
70589;BME280;58152;49.202;18.744;2023-05-12T11:19:48;97409.50;;;17.49;38.77
70589;BME280;58152;49.202;18.744;2023-05-12T11:22:19;97409.91;;;17.56;38.85
70589;BME280;58152;49.202;18.744;2023-05-12T11:24:46;97409.47;;;17.62;38.99
70589;BME280;58152;49.202;18.744;2023-05-12T11:27:14;97409.13;;;17.66;38.76
70589;BME280;58152;49.202;18.744;2023-05-12T11:29:40;97409.63;;;17.71;38.54
70589;BME280;58152;49.202;18.744;2023-05-12T11:32:07;97413.56;;;17.78;37.72
70589;BME280;58152;49.202;18.744;2023-05-12T11:34:33;97410.69;;;17.82;37.06
70589;BME280;58152;49.202;18.744;2023-05-12T11:37:02;97413.75;;;17.88;37.46
70589;BME280;58152;49.202;18.744;2023-05-12T11:39:28;97411.44;;;17.84;37.81
70589;BME280;58152;49.202;18.744;2023-05-12T11:42:04;97405.78;;;17.88;36.58
70589;BME280;58152;49.202;18.744;2023-05-12T11:44:30;97410.50;;;17.96;37.32
70589;BME280;58152;49.202;18.744;2023-05-12T11:47:00;97406.44;;;18.03;37.01
70589;BME280;58152;49.202;18.744;2023-05-12T11:49:27;97406.94;;;18.08;36.99
70589;BME280;58152;49.202;18.744;2023-05-12T11:51:54;97402.97;;;18.14;37.14
70589;BME280;58152;49.202;18.744;2023-05-12T11:54:21;97397.31;;;18.18;36.94
70589;BME280;58152;49.202;18.744;2023-05-12T11:56:52;97400.38;;;18.25;36.92
70589;BME280;58152;49.202;18.744;2023-05-12T11:59:32;97395.69;;;18.28;36.57
70589;BME280;58152;49.202;18.744;2023-05-12T12:02:00;97407.78;;;18.33;37.43
70589;BME280;58152;49.202;18.744;2023-05-12T12:04:39;97402.94;;;18.38;36.68
70589;BME280;58152;49.202;18.744;2023-05-12T12:07:05;97404.88;;;18.36;37.36
70589;BME280;58152;49.202;18.744;2023-05-12T12:09:31;97415.25;;;18.39;37.27
70589;BME280;58152;49.202;18.744;2023-05-12T12:11:59;97413.31;;;18.41;37.28
70589;BME280;58152;49.202;18.744;2023-05-12T12:14:24;97405.34;;;18.41;37.15
70589;BME280;58152;49.202;18.744;2023-05-12T12:16:50;97408.50;;;18.46;37.06
70589;BME280;58152;49.202;18.744;2023-05-12T12:19:15;97406.47;;;18.49;36.92
70589;BME280;58152;49.202;18.744;2023-05-12T12:21:41;97396.59;;;18.51;36.47
70589;BME280;58152;49.202;18.744;2023-05-12T12:24:07;97399.47;;;18.48;36.12
70589;BME280;58152;49.202;18.744;2023-05-12T12:26:32;97408.91;;;18.52;36.00
70589;BME280;58152;49.202;18.744;2023-05-12T12:28:57;97399.97;;;18.53;36.07
70589;BME280;58152;49.202;18.744;2023-05-12T12:31:23;97400.09;;;18.52;36.05
70589;BME280;58152;49.202;18.744;2023-05-12T12:33:48;97398.63;;;18.48;35.55
70589;BME280;58152;49.202;18.744;2023-05-12T12:36:14;97402.25;;;18.47;35.61
70589;BME280;58152;49.202;18.744;2023-05-12T12:38:39;97409.72;;;18.42;35.99
70589;BME280;58152;49.202;18.744;2023-05-12T12:41:06;97401.00;;;18.40;36.19
70589;BME280;58152;49.202;18.744;2023-05-12T12:43:32;97409.19;;;18.37;35.87
70589;BME280;58152;49.202;18.744;2023-05-12T12:45:57;97399.81;;;18.33;35.57
70589;BME280;58152;49.202;18.744;2023-05-12T12:48:22;97400.25;;;18.26;35.80
70589;BME280;58152;49.202;18.744;2023-05-12T12:50:48;97399.06;;;18.31;36.27
70589;BME280;58152;49.202;18.744;2023-05-12T12:53:14;97412.34;;;18.31;36.07
70589;BME280;58152;49.202;18.744;2023-05-12T12:55:40;97412.47;;;18.29;36.15
70589;BME280;58152;49.202;18.744;2023-05-12T12:58:06;97414.03;;;18.32;36.17
70589;BME280;58152;49.202;18.744;2023-05-12T13:03:13;97397.81;;;18.23;35.99
70589;BME280;58152;49.202;18.744;2023-05-12T13:05:38;97405.56;;;18.26;36.31
70589;BME280;58152;49.202;18.744;2023-05-12T13:08:04;97406.66;;;18.24;36.27
70589;BME280;58152;49.202;18.744;2023-05-12T13:10:34;97397.09;;;18.21;36.28
70589;BME280;58152;49.202;18.744;2023-05-12T13:13:00;97397.94;;;18.22;36.17
70589;BME280;58152;49.202;18.744;2023-05-12T13:15:25;97394.44;;;18.21;36.04